createdAt,value
2019-01-08T00:01:57.438Z,64.80
2019-01-08T00:04:25.735Z,72.13
2019-01-08T00:06:54.029Z,60.50
2019-01-08T00:09:22.320Z,70.60
2019-01-08T00:11:50.903Z,58.03
2019-01-08T00:14:19.188Z,52.33
2019-01-08T00:16:47.547Z,61.37
2019-01-08T00:19:16.093Z,61.40
2019-01-08T00:21:44.400Z,57.90
2019-01-08T00:24:12.696Z,52.07
2019-01-08T00:26:40.983Z,71.13
2019-01-08T00:29:09.283Z,68.93
2019-01-08T00:31:37.578Z,69.13
2019-01-08T00:34:06.144Z,68.03
2019-01-08T00:36:34.692Z,64.73
2019-01-08T00:39:03.159Z,69.07
2019-01-08T00:41:31.437Z,58.97
2019-01-08T00:43:59.822Z,60.63
2019-01-08T00:46:28.097Z,75.03
2019-01-08T00:48:56.397Z,58.13
2019-01-08T00:51:24.684Z,52.50
2019-01-08T00:53:53.235Z,43.37
2019-01-08T00:56:21.523Z,48.10
2019-01-08T00:58:51.613Z,57.30
2019-01-08T01:01:19.841Z,50.93
2019-01-08T01:03:48.117Z,46.97
2019-01-08T01:06:16.411Z,41.07
2019-01-08T01:08:44.697Z,48.50
2019-01-08T01:11:12.998Z,40.63
2019-01-08T01:13:41.530Z,36.37
2019-01-08T01:16:09.823Z,38.20
2019-01-08T01:18:38.111Z,41.93
2019-01-08T01:21:06.419Z,41.30
2019-01-08T01:23:34.701Z,46.10
2019-01-08T01:26:03.330Z,39.27
2019-01-08T01:28:31.613Z,37.47
2019-01-08T01:30:59.914Z,40.83
2019-01-08T01:33:28.195Z,40.03
2019-01-08T01:35:56.746Z,36.10
2019-01-08T01:38:25.287Z,37.00
2019-01-08T01:40:53.825Z,35.90
2019-01-08T01:43:22.361Z,38.87
2019-01-08T01:45:50.661Z,38.13
2019-01-08T01:48:18.945Z,31.40
2019-01-08T01:50:47.249Z,32.57
2019-01-08T01:53:15.774Z,33.47
2019-01-08T01:55:44.062Z,28.53
2019-01-08T01:58:12.355Z,29.93
2019-01-08T02:00:40.651Z,27.70
2019-01-08T02:03:08.935Z,26.13
2019-01-08T02:05:37.286Z,28.97
2019-01-08T02:08:05.577Z,28.33
2019-01-08T02:10:33.856Z,27.47
2019-01-08T02:13:02.161Z,30.77
2019-01-08T02:15:30.456Z,34.53
2019-01-08T02:17:58.756Z,30.33
2019-01-08T02:20:27.040Z,27.20
2019-01-08T02:22:55.333Z,25.70
2019-01-08T02:25:23.614Z,26.27
2019-01-08T02:27:51.916Z,26.30
2019-01-08T02:30:20.201Z,25.63
2019-01-08T02:32:48.748Z,26.83
2019-01-08T02:35:17.285Z,31.23
2019-01-08T02:37:45.567Z,27.50
2019-01-08T02:40:14.120Z,26.03
2019-01-08T02:42:42.406Z,27.57
2019-01-08T02:45:10.709Z,21.37
2019-01-08T02:47:38.988Z,21.43
2019-01-08T02:50:07.610Z,24.03
2019-01-08T02:52:38.065Z,23.67
2019-01-08T02:55:06.591Z,25.17
2019-01-08T02:57:35.125Z,30.67
2019-01-08T03:00:05.349Z,20.67
2019-01-08T03:02:33.636Z,20.27
2019-01-08T03:05:01.938Z,23.47
2019-01-08T03:07:30.224Z,20.97
2019-01-08T03:09:58.518Z,23.57
2019-01-08T03:12:26.813Z,23.83
2019-01-08T03:14:55.099Z,21.70
2019-01-08T03:17:23.396Z,22.17
2019-01-08T03:19:51.966Z,24.33
2019-01-08T03:22:20.282Z,22.30
2019-01-08T03:24:48.815Z,24.17
2019-01-08T03:27:17.365Z,26.23
2019-01-08T03:29:45.658Z,26.13
2019-01-08T03:32:13.956Z,24.50
2019-01-08T03:34:42.243Z,23.33
2019-01-08T03:37:10.792Z,24.87
2019-01-08T03:39:39.074Z,23.40
2019-01-08T03:42:07.621Z,25.37
2019-01-08T03:44:35.902Z,26.43
2019-01-08T03:47:04.207Z,26.07
2019-01-08T03:49:32.489Z,27.57
2019-01-08T03:52:00.794Z,29.00
2019-01-08T03:54:29.076Z,29.67
2019-01-08T03:56:57.380Z,29.00
2019-01-08T03:59:25.696Z,31.00
2019-01-08T04:01:53.956Z,33.03
2019-01-08T04:04:22.233Z,27.83
2019-01-08T04:06:50.788Z,28.57
2019-01-08T04:09:19.317Z,34.43
2019-01-08T04:11:47.912Z,28.20
2019-01-08T04:14:16.217Z,28.83
2019-01-08T04:16:44.521Z,27.53
2019-01-08T04:19:12.870Z,29.07
2019-01-08T04:21:41.155Z,24.43
2019-01-08T04:24:09.462Z,26.37
2019-01-08T04:26:37.739Z,28.13
2019-01-08T04:29:06.288Z,29.17
2019-01-08T04:31:34.575Z,27.97
2019-01-08T04:34:02.874Z,27.63
2019-01-08T04:36:31.220Z,29.50
2019-01-08T04:38:59.526Z,28.63
2019-01-08T04:41:27.802Z,31.37
2019-01-08T04:43:56.112Z,27.53
2019-01-08T04:46:24.568Z,29.93
2019-01-08T04:48:52.945Z,30.23
2019-01-08T04:51:21.247Z,28.00
2019-01-08T04:53:49.521Z,29.13
2019-01-08T04:56:17.805Z,30.07
2019-01-08T04:58:46.363Z,31.23
2019-01-08T05:01:14.729Z,33.50
2019-01-08T05:03:43.014Z,29.80
2019-01-08T05:06:11.305Z,30.50
2019-01-08T05:08:39.835Z,30.00
2019-01-08T05:11:08.142Z,30.57
2019-01-08T05:13:36.421Z,37.07
2019-01-08T05:16:04.722Z,29.47
2019-01-08T05:18:33.255Z,29.03
2019-01-08T05:21:01.555Z,30.37
2019-01-08T05:23:29.835Z,28.27
2019-01-08T05:25:58.381Z,24.37
2019-01-08T05:28:26.671Z,27.53
2019-01-08T05:30:54.967Z,26.60
2019-01-08T05:33:23.545Z,27.57
2019-01-08T05:35:51.844Z,25.10
2019-01-08T05:38:20.133Z,27.37
2019-01-08T05:40:48.428Z,25.03
2019-01-08T05:43:16.723Z,26.77
2019-01-08T05:45:45.010Z,28.27
2019-01-08T05:48:13.306Z,24.70
2019-01-08T05:50:41.585Z,26.70
2019-01-08T05:53:09.893Z,27.07
2019-01-08T05:55:38.182Z,27.60
2019-01-08T05:58:06.478Z,26.03
2019-01-08T06:00:34.768Z,24.80
2019-01-08T06:03:03.308Z,24.70
2019-01-08T06:05:31.832Z,24.60
2019-01-08T06:08:00.135Z,26.77
2019-01-08T06:10:28.428Z,22.97
2019-01-08T06:12:56.728Z,25.87
2019-01-08T06:15:25.013Z,27.40
2019-01-08T06:17:53.313Z,24.67
2019-01-08T06:20:21.593Z,24.20
2019-01-08T06:22:49.893Z,30.20
2019-01-08T06:25:18.434Z,19.90
2019-01-08T06:27:46.734Z,29.97
2019-01-08T06:30:15.024Z,20.33
2019-01-08T06:32:43.327Z,19.83
2019-01-08T06:35:11.616Z,18.27
2019-01-08T06:37:40.155Z,21.07
2019-01-08T06:40:08.453Z,19.40
2019-01-08T06:42:36.741Z,18.87
2019-01-08T06:45:06.077Z,18.97
2019-01-08T06:47:35.330Z,17.37
2019-01-08T06:50:04.161Z,17.87
2019-01-08T06:52:33.863Z,16.57
2019-01-08T06:55:02.234Z,30.20
2019-01-08T06:57:30.513Z,19.40
2019-01-08T06:59:58.815Z,18.27
2019-01-08T07:02:27.136Z,18.33
2019-01-08T07:04:55.407Z,16.40
2019-01-08T07:07:23.689Z,20.73
2019-01-08T07:09:51.989Z,17.63
2019-01-08T07:12:20.336Z,16.67
2019-01-08T07:14:48.632Z,16.70
2019-01-08T07:17:16.914Z,32.47
2019-01-08T07:19:45.207Z,19.20
2019-01-08T07:22:13.494Z,18.70
2019-01-08T07:24:41.780Z,19.20
2019-01-08T07:27:16.367Z,18.63
2019-01-08T07:29:40.336Z,15.33
2019-01-08T07:32:08.655Z,17.77
2019-01-08T07:34:36.931Z,21.47
2019-01-08T07:37:05.237Z,18.10
2019-01-08T07:39:33.522Z,16.33
2019-01-08T07:42:01.822Z,15.53
2019-01-08T07:44:30.106Z,15.83
2019-01-08T07:46:58.439Z,25.27
2019-01-08T07:49:26.719Z,17.43
2019-01-08T07:51:55.017Z,18.57
2019-01-08T07:54:23.305Z,15.83
2019-01-08T07:56:51.855Z,16.20
2019-01-08T07:59:20.134Z,16.43
2019-01-08T08:01:48.439Z,18.50
2019-01-08T08:04:16.743Z,17.63
2019-01-08T08:06:45.020Z,38.10
2019-01-08T08:09:13.576Z,23.80
2019-01-08T08:11:41.864Z,24.10
2019-01-08T08:14:10.257Z,21.57
2019-01-08T08:16:38.492Z,23.87
2019-01-08T08:19:08.116Z,22.23
2019-01-08T08:21:36.452Z,18.93
2019-01-08T08:24:04.816Z,18.37
2019-01-08T08:26:33.390Z,17.50
2019-01-08T08:29:01.690Z,18.03
2019-01-08T08:31:29.995Z,15.67
2019-01-08T08:33:58.291Z,17.00
2019-01-08T08:36:26.571Z,22.73
2019-01-08T08:38:55.125Z,16.73
2019-01-08T08:41:23.407Z,16.87
2019-01-08T08:43:51.708Z,16.80
2019-01-08T08:46:20.003Z,19.73
2019-01-08T08:48:48.544Z,16.53
2019-01-08T08:51:16.835Z,16.73
2019-01-08T08:53:52.420Z,17.63
2019-01-08T08:56:15.388Z,25.20
2019-01-08T08:58:43.668Z,23.63
2019-01-08T09:01:11.979Z,22.17
2019-01-08T09:03:40.262Z,16.33
2019-01-08T09:06:08.817Z,15.10
2019-01-08T09:08:37.149Z,15.60
2019-01-08T09:11:05.409Z,13.30
2019-01-08T09:13:33.685Z,13.57
2019-01-08T09:16:01.976Z,15.43
2019-01-08T09:18:30.261Z,15.53
2019-01-08T09:20:58.581Z,14.23
2019-01-08T09:23:27.106Z,15.23
2019-01-08T09:25:55.389Z,18.23
2019-01-08T09:28:23.701Z,15.97
2019-01-08T09:30:52.003Z,15.03
2019-01-08T09:33:20.292Z,16.10
2019-01-08T09:35:49.725Z,15.83
2019-01-08T09:38:18.588Z,16.80
2019-01-08T09:40:46.901Z,36.43
2019-01-08T09:43:15.171Z,31.17
2019-01-08T09:45:43.705Z,16.43
2019-01-08T09:48:12.005Z,18.10
2019-01-08T09:50:40.297Z,20.23
2019-01-08T09:53:08.595Z,16.90
2019-01-08T09:55:37.143Z,18.33
2019-01-08T09:58:05.677Z,22.50
2019-01-08T10:00:33.972Z,20.70
2019-01-08T10:03:02.516Z,19.73
2019-01-08T10:05:30.804Z,20.27
2019-01-08T10:07:59.128Z,27.47
2019-01-08T10:10:27.408Z,19.57
2019-01-08T10:12:55.690Z,20.83
2019-01-08T10:15:24.228Z,21.20
2019-01-08T10:17:52.516Z,22.73
2019-01-08T10:20:20.888Z,24.87
2019-01-08T10:22:49.177Z,20.40
2019-01-08T10:25:17.473Z,60.73
2019-01-08T10:27:45.758Z,19.77
2019-01-08T10:30:14.058Z,25.30
2019-01-08T10:32:42.350Z,20.20
2019-01-08T10:35:10.648Z,19.40
2019-01-08T10:37:38.932Z,18.03
2019-01-08T10:40:08.769Z,16.93
2019-01-08T10:42:37.053Z,18.10
2019-01-08T10:45:07.170Z,53.53
2019-01-08T10:47:35.474Z,36.60
2019-01-08T10:50:03.926Z,22.83
2019-01-08T10:52:32.218Z,17.57
2019-01-08T10:55:00.506Z,19.37
2019-01-08T10:57:28.802Z,20.13
2019-01-08T10:59:57.084Z,19.77
2019-01-08T11:02:25.383Z,17.73
2019-01-08T11:04:53.925Z,16.73
2019-01-08T11:07:22.217Z,16.17
2019-01-08T11:09:50.760Z,15.87
2019-01-08T11:12:19.071Z,16.83
2019-01-08T11:14:47.353Z,24.73
2019-01-08T11:17:15.658Z,15.50
2019-01-08T11:19:43.944Z,16.80
2019-01-08T11:22:12.468Z,16.23
2019-01-08T11:24:40.770Z,15.70
2019-01-08T11:27:09.052Z,17.03
2019-01-08T11:29:37.591Z,17.20
2019-01-08T11:32:05.876Z,20.03
2019-01-08T11:34:34.178Z,23.40
2019-01-08T11:37:02.461Z,25.40
2019-01-08T11:39:31.014Z,28.97
2019-01-08T11:41:59.295Z,31.63
2019-01-08T11:44:27.600Z,28.03
2019-01-08T11:46:55.890Z,31.43
2019-01-08T11:49:24.215Z,25.90
2019-01-08T11:51:52.500Z,23.03
2019-01-08T11:54:20.782Z,21.53
2019-01-08T11:56:49.334Z,21.60
2019-01-08T11:59:17.873Z,23.30
2019-01-08T12:01:46.844Z,24.20
2019-01-08T12:04:15.120Z,24.53
2019-01-08T12:06:43.473Z,25.47
2019-01-08T12:09:11.756Z,24.10
2019-01-08T12:11:40.048Z,22.53
2019-01-08T12:14:08.329Z,21.80
2019-01-08T12:16:36.636Z,19.13
2019-01-08T12:19:05.257Z,25.40
2019-01-08T12:21:33.558Z,22.50
2019-01-08T12:24:01.849Z,27.70
2019-01-08T12:26:30.156Z,33.93
2019-01-08T12:28:58.437Z,37.17
2019-01-08T12:31:26.730Z,36.90
2019-01-08T12:33:55.283Z,38.73
2019-01-08T12:36:23.569Z,44.37
2019-01-08T12:38:52.110Z,40.27
2019-01-08T12:41:20.393Z,48.70
2019-01-08T12:43:48.695Z,44.80
2019-01-08T12:46:16.989Z,45.70
2019-01-08T12:48:45.292Z,53.43
2019-01-08T12:51:13.579Z,50.43
2019-01-08T12:53:41.879Z,47.60
2019-01-08T12:56:10.160Z,47.40
2019-01-08T12:58:38.458Z,43.97
2019-01-08T13:01:06.989Z,41.40
2019-01-08T13:03:35.290Z,37.73
2019-01-08T13:06:03.577Z,39.50
2019-01-08T13:08:31.875Z,31.33
2019-01-08T13:11:00.164Z,23.33
2019-01-08T13:13:28.523Z,24.97
2019-01-08T13:15:56.800Z,24.07
2019-01-08T13:18:25.099Z,20.07
2019-01-08T13:20:53.384Z,22.07
2019-01-08T13:23:21.686Z,19.00
2019-01-08T13:25:49.961Z,12.67
2019-01-08T13:28:18.521Z,14.83
2019-01-08T13:30:46.800Z,13.37
2019-01-08T13:33:15.354Z,12.37
2019-01-08T13:35:43.926Z,12.07
2019-01-08T13:38:12.356Z,14.27
2019-01-08T13:40:40.642Z,13.50
2019-01-08T13:43:09.183Z,18.80
2019-01-08T13:45:37.439Z,12.83
2019-01-08T13:48:05.798Z,13.87
2019-01-08T13:50:34.230Z,16.40
2019-01-08T13:53:02.681Z,18.57
2019-01-08T13:55:31.232Z,16.80
2019-01-08T13:57:59.511Z,20.60
2019-01-08T14:00:27.800Z,21.30
2019-01-08T14:02:56.106Z,26.40
2019-01-08T14:05:24.403Z,31.80
2019-01-08T14:07:52.680Z,34.67
2019-01-08T14:10:20.983Z,35.80
2019-01-08T14:12:49.268Z,32.53
2019-01-08T14:15:17.576Z,30.93
2019-01-08T14:17:46.177Z,31.47
2019-01-08T14:20:14.740Z,26.60
2019-01-08T14:22:43.048Z,29.67
2019-01-08T14:25:11.332Z,33.67
2019-01-08T14:27:39.643Z,30.43
2019-01-08T14:30:09.836Z,28.77
2019-01-08T14:32:40.865Z,21.03
2019-01-08T14:35:08.130Z,26.07
2019-01-08T14:37:36.519Z,24.67
2019-01-08T14:40:06.329Z,23.60
2019-01-08T14:42:34.628Z,24.00
2019-01-08T14:45:03.185Z,17.43
2019-01-08T14:47:31.479Z,18.80
2019-01-08T14:49:59.763Z,18.47
2019-01-08T14:52:28.062Z,21.40
2019-01-08T14:54:56.585Z,26.60
2019-01-08T14:57:24.869Z,33.23
2019-01-08T14:59:53.165Z,38.10
2019-01-08T15:02:21.743Z,40.67
2019-01-08T15:04:50.025Z,43.27
2019-01-08T15:07:18.559Z,44.73
2019-01-08T15:09:46.855Z,44.13
2019-01-08T15:12:15.383Z,45.53
2019-01-08T15:14:43.943Z,42.03
2019-01-08T15:17:12.225Z,46.57
2019-01-08T15:19:40.522Z,42.47
2019-01-08T15:22:08.811Z,44.87
2019-01-08T15:24:37.137Z,50.93
2019-01-08T15:27:05.423Z,49.73
2019-01-08T15:29:33.717Z,52.43
2019-01-08T15:32:02.246Z,50.63
2019-01-08T15:34:30.540Z,47.13
2019-01-08T15:36:59.063Z,48.87
2019-01-08T15:39:27.619Z,55.93
2019-01-08T15:41:56.046Z,48.73
2019-01-08T15:44:24.341Z,48.53
2019-01-08T15:46:52.631Z,46.70
2019-01-08T15:49:20.929Z,48.20
2019-01-08T15:51:49.209Z,44.13
2019-01-08T15:54:17.775Z,45.10
2019-01-08T15:56:46.065Z,46.80
2019-01-08T15:59:14.621Z,49.53
2019-01-08T16:01:42.904Z,52.63
2019-01-08T16:04:11.192Z,48.43
2019-01-08T16:06:39.478Z,51.67
2019-01-08T16:09:07.960Z,52.87
2019-01-08T16:11:36.245Z,52.80
2019-01-08T16:14:04.528Z,47.23
2019-01-08T16:16:32.830Z,47.03
2019-01-08T16:19:01.111Z,43.47
2019-01-08T16:21:29.410Z,39.83
2019-01-08T16:23:57.983Z,34.13
2019-01-08T16:26:26.354Z,36.27
2019-01-08T16:28:54.641Z,28.97
2019-01-08T16:31:22.937Z,26.30
2019-01-08T16:33:51.227Z,28.23
2019-01-08T16:36:19.524Z,28.37
2019-01-08T16:38:48.056Z,28.33
2019-01-08T16:41:16.357Z,28.30
2019-01-08T16:43:44.641Z,31.03
2019-01-08T16:46:12.942Z,30.90
2019-01-08T16:48:41.526Z,28.20
2019-01-08T16:51:09.769Z,21.97
2019-01-08T16:53:41.444Z,21.10
2019-01-08T16:56:08.332Z,20.17
2019-01-08T16:58:36.603Z,22.37
2019-01-08T17:01:04.915Z,21.33
2019-01-08T17:03:33.562Z,20.27
2019-01-08T17:06:01.850Z,21.93
2019-01-08T17:08:30.395Z,20.57
2019-01-08T17:10:58.677Z,27.50
2019-01-08T17:13:27.217Z,19.13
2019-01-08T17:15:55.495Z,19.33
2019-01-08T17:18:23.801Z,19.67
2019-01-08T17:20:52.084Z,19.60
2019-01-08T17:23:20.382Z,19.20
2019-01-08T17:25:48.667Z,85.10
2019-01-08T17:28:16.961Z,19.70
2019-01-08T17:30:45.500Z,18.67
2019-01-08T17:33:14.064Z,20.70
2019-01-08T17:35:42.349Z,22.67
2019-01-08T17:38:10.641Z,18.70
2019-01-08T17:40:38.927Z,19.23
2019-01-08T17:43:07.495Z,16.03
2019-01-08T17:45:36.016Z,20.23
2019-01-08T17:48:04.628Z,26.17
2019-01-08T17:50:33.190Z,16.90
2019-01-08T17:53:01.475Z,19.90
2019-01-08T17:55:29.768Z,20.37
2019-01-08T17:58:32.778Z,18.77
2019-01-08T18:01:09.832Z,15.37
2019-01-08T18:03:42.825Z,14.00
2019-01-08T18:06:08.382Z,26.57
2019-01-08T18:08:38.299Z,25.17
2019-01-08T18:11:06.597Z,15.20
2019-01-08T18:13:35.141Z,15.03
2019-01-08T18:16:03.466Z,14.17
2019-01-08T18:18:32.007Z,20.33
2019-01-08T18:21:00.307Z,13.90
2019-01-08T18:23:28.602Z,17.20
2019-01-08T18:25:57.148Z,13.50
2019-01-08T18:28:25.434Z,13.77
2019-01-08T18:30:53.734Z,14.40
2019-01-08T18:33:22.094Z,13.93
2019-01-08T18:35:50.542Z,14.23
2019-01-08T18:38:19.076Z,13.63
2019-01-08T18:40:47.379Z,14.47
2019-01-08T18:43:15.658Z,14.73
2019-01-08T18:45:44.029Z,14.23
2019-01-08T18:48:12.327Z,16.30
2019-01-08T18:50:40.632Z,24.80
2019-01-08T18:53:08.912Z,14.30
2019-01-08T18:55:37.199Z,15.20
2019-01-08T18:58:05.497Z,14.10
2019-01-08T19:00:34.112Z,14.30
2019-01-08T19:03:03.005Z,13.17
2019-01-08T19:05:31.290Z,36.27
2019-01-08T19:07:59.659Z,13.30
2019-01-08T19:10:28.229Z,13.03
2019-01-08T19:12:56.778Z,14.20
2019-01-08T19:15:25.060Z,20.17
2019-01-08T19:17:55.104Z,15.17
2019-01-08T19:20:23.630Z,14.80
2019-01-08T19:22:52.792Z,15.37
2019-01-08T19:25:21.344Z,15.80
2019-01-08T19:27:49.906Z,16.83
2019-01-08T19:30:18.205Z,31.83
2019-01-08T19:32:46.488Z,20.23
2019-01-08T19:35:14.848Z,29.13
2019-01-08T19:37:43.137Z,23.57
2019-01-08T19:40:11.577Z,23.67
2019-01-08T19:42:39.873Z,16.77
2019-01-08T19:45:08.438Z,17.73
2019-01-08T19:47:36.727Z,20.80
2019-01-08T19:50:06.871Z,17.77
2019-01-08T19:52:35.408Z,16.10
2019-01-08T19:55:03.984Z,17.63
2019-01-08T19:57:32.297Z,17.50
2019-01-08T20:00:00.627Z,21.13
2019-01-08T20:02:29.157Z,17.73
2019-01-08T20:04:57.463Z,26.90
2019-01-08T20:07:25.881Z,29.83
2019-01-08T20:09:54.188Z,44.47
2019-01-08T20:12:22.592Z,44.17
2019-01-08T20:14:50.890Z,46.83
2019-01-08T20:17:19.265Z,44.83
2019-01-08T20:19:47.579Z,42.17
2019-01-08T20:22:16.128Z,46.13
2019-01-08T20:24:44.417Z,43.23
2019-01-08T20:27:12.980Z,36.73
2019-01-08T20:29:41.264Z,38.30
2019-01-08T20:32:09.649Z,33.70
2019-01-08T20:34:38.201Z,31.30
2019-01-08T20:37:06.743Z,34.97
2019-01-08T20:39:35.306Z,37.53
2019-01-08T20:42:03.663Z,26.20
2019-01-08T20:44:32.267Z,24.40
2019-01-08T20:47:00.644Z,23.93
2019-01-08T20:49:29.187Z,24.53
2019-01-08T20:51:57.490Z,24.07
2019-01-08T20:54:25.888Z,23.40
2019-01-08T20:56:54.171Z,27.27
2019-01-08T20:59:22.458Z,21.47
2019-01-08T21:01:51.059Z,25.73
2019-01-08T21:04:19.356Z,32.00
2019-01-08T21:06:48.789Z,22.90
2019-01-08T21:09:17.087Z,30.47
2019-01-08T21:11:45.374Z,35.20
2019-01-08T21:14:13.980Z,22.57
2019-01-08T21:16:42.268Z,21.90
2019-01-08T21:19:10.575Z,20.47
2019-01-08T21:21:39.109Z,22.37
2019-01-08T21:24:07.510Z,21.53
2019-01-08T21:26:36.078Z,24.57
2019-01-08T21:29:04.353Z,26.30
2019-01-08T21:31:32.902Z,22.93
2019-01-08T21:34:01.321Z,22.90
2019-01-08T21:36:29.846Z,22.07
2019-01-08T21:38:59.832Z,21.33
2019-01-08T21:41:28.106Z,22.57
2019-01-08T21:43:56.387Z,35.37
2019-01-08T21:46:24.686Z,34.90
2019-01-08T21:48:53.231Z,29.83
2019-01-08T21:51:21.844Z,31.07
2019-01-08T21:53:50.127Z,25.77
2019-01-08T21:56:18.426Z,39.77
2019-01-08T21:58:46.705Z,29.53
2019-01-08T22:01:15.015Z,28.60
2019-01-08T22:03:46.494Z,27.73
2019-01-08T22:06:14.803Z,34.53
2019-01-08T22:08:43.098Z,25.37
2019-01-08T22:11:11.393Z,23.20
2019-01-08T22:13:39.683Z,26.00
2019-01-08T22:16:08.222Z,30.13
2019-01-08T22:18:36.531Z,26.43
2019-01-08T22:21:04.813Z,32.90
2019-01-08T22:23:33.117Z,22.63
2019-01-08T22:26:01.396Z,42.53
2019-01-08T22:28:29.703Z,24.33
2019-01-08T22:30:58.228Z,26.53
2019-01-08T22:33:26.500Z,66.00
2019-01-08T22:35:54.804Z,31.40
2019-01-08T22:38:23.319Z,32.73
2019-01-08T22:40:51.990Z,26.07
2019-01-08T22:43:20.342Z,31.93
2019-01-08T22:45:48.914Z,30.20
2019-01-08T22:48:17.449Z,51.57
2019-01-08T22:50:46.025Z,24.57
2019-01-08T22:53:15.288Z,31.80
2019-01-08T22:55:43.840Z,51.07
2019-01-08T22:58:12.407Z,39.57
2019-01-08T23:00:47.990Z,36.70
2019-01-08T23:03:16.895Z,41.73
2019-01-08T23:05:45.300Z,30.60
2019-01-08T23:08:13.969Z,33.33
2019-01-08T23:10:42.258Z,30.70
2019-01-08T23:13:10.551Z,63.67
2019-01-08T23:15:38.832Z,32.40
2019-01-08T23:18:07.133Z,29.00
2019-01-08T23:20:35.415Z,59.10
2019-01-08T23:23:03.720Z,46.37
2019-01-08T23:25:32.015Z,27.37
2019-01-08T23:28:00.314Z,30.20
2019-01-08T23:30:28.616Z,36.37
2019-01-08T23:32:56.975Z,30.70
2019-01-08T23:35:25.262Z,31.63
2019-01-08T23:37:53.565Z,35.33
2019-01-08T23:40:21.863Z,35.93
2019-01-08T23:42:50.185Z,42.80
2019-01-08T23:45:18.474Z,42.97
2019-01-08T23:47:46.833Z,60.53
2019-01-08T23:50:16.091Z,64.53
2019-01-08T23:52:47.550Z,68.43
2019-01-08T23:55:16.134Z,68.90
2019-01-08T23:57:44.847Z,77.00
